createdAt,value
2023-01-22T00:01:50.028Z,28.67
2023-01-22T00:04:18.692Z,27.57
2023-01-22T00:06:47.396Z,28.37
2023-01-22T00:09:15.970Z,29.60
2023-01-22T00:11:45.163Z,27.03
2023-01-22T00:14:15.500Z,29.53
2023-01-22T00:16:44.650Z,25.73
2023-01-22T00:19:13.251Z,31.07
2023-01-22T00:21:41.869Z,27.40
2023-01-22T00:24:11.104Z,27.73
2023-01-22T00:26:39.743Z,28.17
2023-01-22T00:29:08.613Z,26.77
2023-01-22T00:31:39.004Z,28.00
2023-01-22T00:34:08.037Z,26.73
2023-01-22T00:36:36.688Z,27.53
2023-01-22T00:39:05.661Z,25.73
2023-01-22T00:41:34.273Z,22.93
2023-01-22T00:44:03.346Z,26.27
2023-01-22T00:46:32.881Z,23.43
2023-01-22T00:49:03.766Z,22.20
2023-01-22T00:51:36.139Z,26.33
2023-01-22T00:54:04.848Z,24.13
2023-01-22T00:56:33.483Z,23.50
2023-01-22T00:59:02.341Z,26.37
2023-01-22T01:01:30.876Z,23.17
2023-01-22T01:03:59.541Z,22.73
2023-01-22T01:06:29.850Z,22.53
2023-01-22T01:08:58.750Z,22.07
2023-01-22T01:11:27.819Z,23.53
2023-01-22T01:13:56.413Z,23.57
2023-01-22T01:16:28.196Z,26.10
2023-01-22T01:18:59.665Z,25.40
2023-01-22T01:21:30.400Z,24.60
2023-01-22T01:24:00.152Z,25.20
2023-01-22T01:26:29.166Z,26.30
2023-01-22T01:28:57.807Z,25.20
2023-01-22T01:31:27.259Z,22.20
2023-01-22T01:33:56.473Z,25.27
2023-01-22T01:39:16.382Z,21.43
2023-01-22T01:41:45.515Z,21.33
2023-01-22T01:44:16.530Z,24.60
2023-01-22T01:46:49.559Z,21.23
2023-01-22T01:49:22.531Z,20.90
2023-01-22T01:51:51.525Z,21.77
2023-01-22T01:54:21.949Z,20.90
2023-01-22T01:56:54.999Z,20.90
2023-01-22T01:59:24.143Z,19.43
2023-01-22T02:01:56.623Z,19.07
2023-01-22T02:04:26.055Z,17.97
2023-01-22T02:06:54.681Z,17.67
2023-01-22T02:09:28.518Z,17.53
2023-01-22T02:11:57.092Z,15.27
2023-01-22T02:14:28.701Z,15.03
2023-01-22T02:17:07.066Z,15.47
2023-01-22T02:19:35.926Z,16.83
2023-01-22T02:22:12.762Z,16.20
2023-01-22T02:24:41.496Z,14.53
2023-01-22T02:27:09.977Z,13.97
2023-01-22T02:29:38.832Z,16.10
2023-01-22T02:32:07.574Z,13.77
2023-01-22T02:34:36.448Z,13.93
2023-01-22T02:37:06.773Z,13.80
2023-01-22T02:39:35.398Z,14.53
2023-01-22T02:42:06.885Z,13.70
2023-01-22T02:44:35.375Z,14.07
2023-01-22T02:47:04.327Z,14.17
2023-01-22T02:49:33.142Z,13.20
2023-01-22T02:52:03.095Z,13.30
2023-01-22T02:54:33.027Z,13.57
2023-01-22T02:57:01.623Z,24.73
2023-01-22T02:59:30.525Z,13.73
2023-01-22T03:01:59.081Z,15.13
2023-01-22T03:04:28.976Z,15.03
2023-01-22T03:06:57.705Z,15.07
2023-01-22T03:09:26.718Z,15.40
2023-01-22T03:11:59.835Z,15.43
2023-01-22T03:14:45.710Z,17.27
2023-01-22T03:17:31.844Z,17.30
2023-01-22T03:20:18.399Z,17.83
2023-01-22T03:22:47.069Z,15.47
2023-01-22T03:25:15.651Z,16.83
2023-01-22T03:27:59.716Z,17.23
2023-01-22T03:30:28.396Z,16.47
2023-01-22T03:32:56.897Z,14.77
2023-01-22T03:35:25.560Z,17.33
2023-01-22T03:37:54.570Z,19.00
2023-01-22T03:40:23.156Z,16.77
2023-01-22T03:42:56.198Z,16.13
2023-01-22T03:45:24.695Z,18.77
2023-01-22T03:47:55.339Z,18.30
2023-01-22T03:50:23.873Z,16.93
2023-01-22T03:52:52.384Z,17.67
2023-01-22T03:55:21.192Z,16.17
2023-01-22T03:57:49.769Z,17.83
2023-01-22T04:00:20.907Z,15.73
2023-01-22T04:02:50.407Z,19.80
2023-01-22T04:05:19.264Z,17.03
2023-01-22T04:07:49.857Z,18.50
2023-01-22T04:10:19.563Z,18.63
2023-01-22T04:12:48.388Z,19.80
2023-01-22T04:15:18.819Z,16.73
2023-01-22T04:17:47.301Z,16.10
2023-01-22T04:20:16.014Z,19.60
2023-01-22T04:22:44.970Z,18.03
2023-01-22T04:25:13.518Z,21.23
2023-01-22T04:27:42.031Z,18.40
2023-01-22T04:30:11.708Z,17.10
2023-01-22T04:32:41.870Z,18.47
2023-01-22T04:35:11.078Z,16.70
2023-01-22T04:37:39.610Z,18.43
2023-01-22T04:40:09.459Z,17.13
2023-01-22T04:42:38.364Z,22.33
2023-01-22T04:45:07.856Z,20.47
2023-01-22T04:47:36.461Z,18.43
2023-01-22T04:50:06.903Z,18.20
2023-01-22T04:52:35.464Z,20.70
2023-01-22T04:55:06.520Z,22.07
2023-01-22T04:57:35.374Z,20.90
2023-01-22T05:00:04.576Z,20.60
2023-01-22T05:02:33.156Z,19.33
2023-01-22T05:05:01.817Z,22.00
2023-01-22T05:07:32.288Z,19.30
2023-01-22T05:10:00.837Z,20.27
2023-01-22T05:12:29.760Z,19.83
2023-01-22T05:14:59.446Z,18.13
2023-01-22T05:17:28.374Z,21.33
2023-01-22T05:19:57.236Z,19.10
2023-01-22T05:22:25.905Z,18.30
2023-01-22T05:24:56.565Z,19.33
2023-01-22T05:27:25.293Z,19.50
2023-01-22T05:29:54.097Z,17.93
2023-01-22T05:32:22.731Z,18.03
2023-01-22T05:34:51.930Z,18.83
2023-01-22T05:37:20.679Z,19.10
2023-01-22T05:39:49.292Z,21.43
2023-01-22T05:42:19.420Z,17.13
2023-01-22T05:44:48.083Z,17.17
2023-01-22T05:47:16.777Z,17.77
2023-01-22T05:49:45.787Z,18.00
2023-01-22T05:52:14.450Z,15.67
2023-01-22T05:54:43.143Z,15.10
2023-01-22T05:57:11.766Z,16.97
2023-01-22T05:59:42.285Z,19.33
2023-01-22T06:02:12.872Z,17.03
2023-01-22T06:04:41.495Z,16.77
2023-01-22T06:07:10.205Z,18.03
2023-01-22T06:09:39.217Z,17.60
2023-01-22T06:12:08.598Z,17.43
2023-01-22T06:14:37.351Z,18.40
2023-01-22T06:17:07.394Z,17.33
2023-01-22T06:19:36.140Z,16.27
2023-01-22T06:22:06.829Z,16.90
2023-01-22T06:24:35.404Z,17.53
2023-01-22T06:27:05.432Z,17.17
2023-01-22T06:29:34.127Z,17.37
2023-01-22T06:32:02.746Z,18.30
2023-01-22T06:34:32.861Z,17.47
2023-01-22T06:37:01.815Z,18.10
2023-01-22T06:39:30.408Z,17.60
2023-01-22T06:41:59.485Z,16.97
2023-01-22T06:44:28.097Z,17.33
2023-01-22T06:46:56.736Z,16.77
2023-01-22T06:49:25.476Z,18.07
2023-01-22T06:51:56.046Z,17.47
2023-01-22T06:54:24.860Z,18.93
2023-01-22T06:56:53.738Z,16.67
2023-01-22T06:59:24.293Z,17.47
2023-01-22T07:01:53.398Z,17.93
2023-01-22T07:04:22.089Z,19.17
2023-01-22T07:06:50.800Z,18.87
2023-01-22T07:09:21.121Z,17.40
2023-01-22T07:11:50.449Z,17.97
2023-01-22T07:14:26.014Z,17.60
2023-01-22T07:17:04.723Z,17.37
2023-01-22T07:19:33.685Z,18.57
2023-01-22T07:22:02.409Z,19.70
2023-01-22T07:24:32.478Z,17.03
2023-01-22T07:27:03.244Z,18.40
2023-01-22T07:29:32.015Z,17.90
2023-01-22T07:32:00.727Z,18.10
2023-01-22T07:34:29.499Z,17.40
2023-01-22T07:36:58.997Z,16.83
2023-01-22T07:39:27.550Z,17.07
2023-01-22T07:42:01.335Z,17.97
2023-01-22T07:44:30.074Z,21.40
2023-01-22T07:46:58.585Z,21.20
2023-01-22T07:49:27.098Z,18.30
2023-01-22T07:51:55.609Z,15.13
2023-01-22T07:54:24.333Z,17.27
2023-01-22T07:56:52.909Z,16.43
2023-01-22T07:59:23.056Z,19.80
2023-01-22T08:01:51.640Z,18.00
2023-01-22T08:04:20.508Z,19.93
2023-01-22T08:06:49.006Z,19.50
2023-01-22T08:09:24.897Z,21.80
2023-01-22T08:11:53.683Z,18.77
2023-01-22T08:14:23.645Z,16.70
2023-01-22T08:16:52.228Z,18.20
2023-01-22T08:19:23.531Z,20.73
2023-01-22T08:21:52.091Z,20.47
2023-01-22T08:24:20.609Z,19.67
2023-01-22T08:26:49.205Z,18.97
2023-01-22T08:29:17.782Z,19.57
2023-01-22T08:31:47.817Z,21.73
2023-01-22T08:34:16.725Z,19.50
2023-01-22T08:36:45.267Z,18.93
2023-01-22T08:39:14.097Z,18.93
2023-01-22T08:41:42.901Z,19.23
2023-01-22T08:44:14.461Z,17.53
2023-01-22T08:46:43.079Z,19.13
2023-01-22T08:49:13.182Z,17.60
2023-01-22T08:51:41.773Z,18.33
2023-01-22T08:54:10.772Z,19.23
2023-01-22T08:56:39.243Z,19.30
2023-01-22T08:59:07.863Z,18.87
2023-01-22T09:01:36.514Z,20.57
2023-01-22T09:04:08.316Z,21.60
2023-01-22T09:06:39.328Z,19.30
2023-01-22T09:09:08.676Z,19.53
2023-01-22T09:11:37.305Z,17.53
2023-01-22T09:14:08.455Z,22.77
2023-01-22T09:16:37.505Z,18.33
2023-01-22T09:19:06.345Z,17.67
2023-01-22T09:21:37.511Z,18.57
2023-01-22T09:24:08.383Z,19.47
2023-01-22T09:26:38.147Z,19.63
2023-01-22T09:29:07.161Z,19.07
2023-01-22T09:31:36.845Z,18.10
2023-01-22T09:34:05.937Z,20.27
2023-01-22T09:36:34.444Z,17.87
2023-01-22T09:39:02.996Z,20.83
2023-01-22T09:41:36.850Z,20.70
2023-01-22T09:44:10.847Z,18.87
2023-01-22T09:46:44.073Z,20.13
2023-01-22T09:49:17.581Z,19.07
2023-01-22T09:51:48.464Z,23.07
2023-01-22T09:54:17.811Z,23.47
2023-01-22T09:56:50.454Z,19.97
2023-01-22T09:59:20.664Z,22.50
2023-01-22T10:01:54.856Z,20.17
2023-01-22T10:04:38.315Z,20.97
2023-01-22T10:07:13.011Z,20.37
2023-01-22T10:09:45.021Z,19.87
2023-01-22T10:12:15.723Z,19.13
2023-01-22T10:14:45.260Z,21.43
2023-01-22T10:17:21.111Z,22.37
2023-01-22T10:19:53.796Z,18.80
2023-01-22T10:22:24.093Z,21.10
2023-01-22T10:24:53.492Z,19.83
2023-01-22T10:27:27.095Z,20.13
2023-01-22T10:30:02.492Z,20.33
2023-01-22T10:32:32.850Z,20.53
2023-01-22T10:35:05.234Z,20.83
2023-01-22T10:37:45.436Z,17.17
2023-01-22T10:40:24.467Z,18.20
2023-01-22T10:43:11.773Z,18.00
2023-01-22T10:45:41.418Z,18.17
2023-01-22T10:48:16.780Z,20.60
2023-01-22T10:50:46.572Z,17.87
2023-01-22T10:53:24.133Z,20.60
2023-01-22T10:55:55.653Z,22.10
2023-01-22T10:58:29.685Z,20.43
2023-01-22T11:01:01.541Z,18.07
2023-01-22T11:03:38.091Z,20.33
2023-01-22T11:06:14.692Z,21.20
2023-01-22T11:08:47.881Z,21.30
2023-01-22T11:11:19.283Z,24.47
2023-01-22T11:13:56.575Z,23.43
2023-01-22T11:16:26.860Z,19.37
2023-01-22T11:18:59.973Z,20.33
2023-01-22T11:21:31.382Z,24.77
2023-01-22T11:24:05.858Z,27.73
2023-01-22T11:26:56.804Z,22.43
2023-01-22T11:29:53.889Z,22.53
2023-01-22T11:32:42.530Z,23.43
2023-01-22T11:35:26.034Z,22.97
2023-01-22T11:38:12.651Z,23.60
2023-01-22T11:40:53.116Z,21.70
2023-01-22T11:43:36.212Z,22.33
2023-01-22T11:46:33.769Z,25.03
2023-01-22T11:49:14.794Z,20.30
2023-01-22T11:51:56.503Z,21.13
2023-01-22T11:54:39.835Z,25.80
2023-01-22T11:57:18.337Z,23.70
2023-01-22T12:00:25.954Z,21.00
2023-01-22T12:03:28.735Z,23.97
2023-01-22T12:06:13.042Z,23.47
2023-01-22T12:08:55.036Z,23.23
2023-01-22T12:12:02.962Z,23.03
2023-01-22T12:14:47.624Z,21.43
2023-01-22T12:17:42.116Z,23.27
2023-01-22T12:20:32.601Z,22.97
2023-01-22T12:23:06.385Z,21.50
2023-01-22T12:25:41.507Z,23.07
2023-01-22T12:28:16.671Z,23.37
2023-01-22T12:30:52.526Z,22.97
2023-01-22T12:33:24.512Z,26.37
2023-01-22T12:35:59.109Z,23.60
2023-01-22T12:38:43.134Z,25.40
2023-01-22T12:41:31.236Z,22.53
2023-01-22T12:44:03.344Z,20.80
2023-01-22T12:46:38.136Z,22.90
2023-01-22T12:49:08.860Z,24.23
2023-01-22T12:51:42.192Z,21.07
2023-01-22T12:54:29.768Z,24.20
2023-01-22T12:57:11.780Z,22.27
2023-01-22T12:59:48.692Z,23.57
2023-01-22T13:02:38.105Z,25.13
2023-01-22T13:05:22.579Z,21.43
2023-01-22T13:08:06.573Z,26.23
2023-01-22T13:10:36.936Z,25.40
2023-01-22T13:13:18.386Z,25.37
2023-01-22T13:15:54.647Z,27.20
2023-01-22T13:18:27.710Z,23.63
2023-01-22T13:21:04.416Z,23.10
2023-01-22T13:23:38.689Z,27.83
2023-01-22T13:26:07.600Z,25.93
2023-01-22T13:28:36.490Z,25.33
2023-01-22T13:31:11.504Z,24.77
2023-01-22T13:33:40.360Z,28.60
2023-01-22T13:36:14.736Z,27.23
2023-01-22T13:38:54.270Z,26.33
2023-01-22T13:41:29.629Z,29.23
2023-01-22T13:43:58.767Z,26.20
2023-01-22T13:46:29.784Z,25.37
2023-01-22T13:49:10.027Z,24.27
2023-01-22T13:51:41.091Z,27.87
2023-01-22T13:54:19.764Z,30.87
2023-01-22T13:56:48.721Z,27.30
2023-01-22T13:59:22.591Z,30.10
2023-01-22T14:01:52.853Z,27.80
2023-01-22T14:04:37.657Z,28.77
2023-01-22T14:07:07.564Z,29.63
2023-01-22T14:09:40.682Z,25.97
2023-01-22T14:12:17.957Z,28.00
2023-01-22T14:14:47.438Z,23.70
2023-01-22T14:17:29.058Z,29.60
2023-01-22T14:20:00.804Z,26.40
2023-01-22T14:22:29.997Z,26.10
2023-01-22T14:25:04.320Z,26.93
2023-01-22T14:27:42.615Z,33.67
2023-01-22T14:30:14.873Z,28.27
2023-01-22T14:32:45.505Z,31.07
2023-01-22T14:35:18.822Z,25.57
2023-01-22T14:37:53.730Z,24.40
2023-01-22T14:40:26.388Z,32.30
2023-01-22T14:42:55.603Z,37.03
2023-01-22T14:45:28.049Z,30.47
2023-01-22T14:48:04.420Z,33.10
2023-01-22T14:50:34.240Z,28.57
2023-01-22T14:53:03.927Z,30.37
2023-01-22T14:55:35.671Z,28.50
2023-01-22T14:58:07.823Z,25.17
2023-01-22T15:00:36.733Z,29.57
2023-01-22T15:03:06.502Z,30.37
2023-01-22T15:05:39.567Z,27.30
2023-01-22T15:08:08.498Z,25.63
2023-01-22T15:10:39.800Z,30.27
2023-01-22T15:13:09.235Z,30.23
2023-01-22T15:15:40.490Z,28.40
2023-01-22T15:18:09.460Z,26.43
2023-01-22T15:20:39.342Z,30.27
2023-01-22T15:23:08.303Z,32.07
2023-01-22T15:25:38.637Z,29.53
2023-01-22T15:28:07.859Z,28.53
2023-01-22T15:30:36.983Z,35.07
2023-01-22T15:33:06.096Z,28.77
2023-01-22T15:35:35.472Z,27.53
2023-01-22T15:38:05.726Z,30.13
2023-01-22T15:40:41.804Z,27.63
2023-01-22T15:43:13.181Z,33.27
2023-01-22T15:45:41.880Z,31.30
2023-01-22T15:48:13.572Z,27.07
2023-01-22T15:50:42.569Z,32.13
2023-01-22T15:53:11.436Z,33.10
2023-01-22T15:55:40.455Z,32.50
2023-01-22T15:58:13.389Z,31.33
2023-01-22T16:00:42.401Z,32.60
2023-01-22T16:03:12.295Z,25.00
2023-01-22T16:05:41.153Z,29.47
2023-01-22T16:08:10.089Z,33.07
2023-01-22T16:10:39.289Z,30.33
2023-01-22T16:13:08.287Z,32.77
2023-01-22T16:15:38.680Z,27.53
2023-01-22T16:18:07.785Z,34.27
2023-01-22T16:20:36.789Z,34.43
2023-01-22T16:23:09.386Z,30.30
2023-01-22T16:25:41.794Z,27.43
2023-01-22T16:28:10.658Z,31.07
2023-01-22T16:30:43.404Z,34.73
2023-01-22T16:33:21.457Z,27.53
2023-01-22T16:35:50.582Z,37.73
2023-01-22T16:38:19.762Z,36.10
2023-01-22T16:40:49.800Z,34.67
2023-01-22T16:43:18.740Z,33.17
2023-01-22T16:45:48.843Z,39.43
2023-01-22T16:48:17.529Z,39.13
2023-01-22T16:50:48.365Z,33.30
2023-01-22T16:53:17.133Z,40.00
2023-01-22T16:55:46.383Z,33.40
2023-01-22T16:58:15.238Z,37.63
2023-01-22T17:00:44.145Z,33.00
2023-01-22T17:03:14.876Z,39.33
2023-01-22T17:05:44.282Z,38.87
2023-01-22T17:08:13.393Z,41.10
2023-01-22T17:10:45.299Z,37.73
2023-01-22T17:13:14.470Z,33.70
2023-01-22T17:15:47.654Z,39.30
2023-01-22T17:18:20.320Z,43.50
2023-01-22T17:21:01.577Z,39.03
2023-01-22T17:23:33.666Z,37.10
2023-01-22T17:26:14.887Z,40.40
2023-01-22T17:28:44.127Z,34.50
2023-01-22T17:31:15.648Z,41.90
2023-01-22T17:33:46.854Z,41.50
2023-01-22T17:36:21.061Z,38.43
2023-01-22T17:38:51.778Z,39.80
2023-01-22T17:41:22.185Z,46.57
2023-01-22T17:43:55.557Z,38.17
2023-01-22T17:46:26.982Z,38.93
2023-01-22T17:48:57.876Z,44.10
2023-01-22T17:51:28.403Z,40.27
2023-01-22T17:53:59.471Z,37.37
2023-01-22T17:56:33.526Z,49.27
2023-01-22T17:59:04.166Z,42.43
2023-01-22T18:01:41.145Z,44.90
2023-01-22T18:04:12.922Z,41.33
2023-01-22T18:06:46.138Z,50.67
2023-01-22T18:09:18.556Z,43.37
2023-01-22T18:11:48.298Z,46.50
2023-01-22T18:14:23.821Z,42.53
2023-01-22T18:16:53.534Z,45.03
2023-01-22T18:19:24.872Z,40.07
2023-01-22T18:21:54.076Z,39.47
2023-01-22T18:24:24.495Z,38.43
2023-01-22T18:26:59.341Z,36.50
2023-01-22T18:29:28.379Z,38.93
2023-01-22T18:31:57.599Z,43.50
2023-01-22T18:34:28.320Z,40.27
2023-01-22T18:36:58.218Z,50.20
2023-01-22T18:39:28.199Z,40.50
2023-01-22T18:41:57.185Z,41.03
2023-01-22T18:44:29.615Z,38.37
2023-01-22T18:47:03.182Z,41.40
2023-01-22T18:49:36.118Z,37.93
2023-01-22T18:52:06.272Z,37.43
2023-01-22T18:54:35.562Z,44.23
2023-01-22T18:57:07.386Z,37.83
2023-01-22T18:59:36.197Z,40.23
2023-01-22T19:02:05.586Z,42.87
2023-01-22T19:04:36.265Z,45.97
2023-01-22T19:07:06.303Z,39.27
2023-01-22T19:09:37.427Z,43.33
2023-01-22T19:12:07.766Z,43.87
2023-01-22T19:14:36.757Z,44.67
2023-01-22T19:17:07.248Z,45.90
2023-01-22T19:19:37.762Z,45.97
2023-01-22T19:22:06.689Z,40.10
2023-01-22T19:24:39.009Z,46.70
2023-01-22T19:27:08.451Z,45.77
2023-01-22T19:29:37.475Z,50.20
2023-01-22T19:32:09.745Z,43.10
2023-01-22T19:34:40.403Z,43.27
2023-01-22T19:37:14.417Z,44.50
2023-01-22T19:39:43.905Z,46.80
2023-01-22T19:42:13.121Z,51.60
2023-01-22T19:44:45.839Z,45.47
2023-01-22T19:47:15.664Z,43.47
2023-01-22T19:49:50.862Z,49.17
2023-01-22T19:52:25.193Z,35.03
2023-01-22T19:54:57.687Z,42.30
2023-01-22T19:57:30.344Z,54.40
2023-01-22T19:59:59.860Z,46.17
2023-01-22T20:02:28.996Z,40.07
2023-01-22T20:04:59.650Z,40.73
2023-01-22T20:07:28.591Z,47.27
2023-01-22T20:10:16.068Z,43.30
2023-01-22T20:12:50.365Z,45.60
2023-01-22T20:15:22.791Z,43.60
2023-01-22T20:17:51.970Z,38.50
2023-01-22T20:20:26.468Z,37.73
2023-01-22T20:22:57.832Z,47.90
2023-01-22T20:25:32.273Z,46.30
2023-01-22T20:28:01.516Z,43.60
2023-01-22T20:30:30.379Z,53.43
2023-01-22T20:32:59.528Z,50.30
2023-01-22T20:35:30.041Z,48.23
2023-01-22T20:37:58.983Z,47.97
2023-01-22T20:40:27.845Z,56.27
2023-01-22T20:42:59.225Z,48.13
2023-01-22T20:45:28.442Z,52.67
2023-01-22T20:48:01.978Z,46.83
2023-01-22T20:50:33.201Z,51.43
2023-01-22T20:53:06.568Z,55.67
2023-01-22T20:55:36.663Z,49.30
2023-01-22T20:58:06.080Z,47.37
2023-01-22T21:00:34.848Z,45.87
2023-01-22T21:03:10.330Z,50.00
2023-01-22T21:05:44.356Z,52.57
2023-01-22T21:08:15.305Z,53.27
2023-01-22T21:10:55.815Z,52.80
2023-01-22T21:13:25.501Z,51.83
2023-01-22T21:15:54.909Z,56.83
2023-01-22T21:18:25.175Z,49.47
2023-01-22T21:20:55.428Z,53.00
2023-01-22T21:23:26.288Z,49.47
2023-01-22T21:25:55.051Z,44.83
2023-01-22T21:28:23.876Z,50.07
2023-01-22T21:30:57.315Z,50.40
2023-01-22T21:33:26.757Z,44.77
2023-01-22T21:35:57.070Z,46.10
2023-01-22T21:38:25.989Z,49.90
2023-01-22T21:41:10.583Z,49.73
2023-01-22T21:43:57.736Z,43.50
2023-01-22T21:46:27.302Z,50.97
2023-01-22T21:48:58.697Z,50.53
2023-01-22T21:51:29.749Z,52.90
2023-01-22T21:53:59.850Z,42.83
2023-01-22T21:56:29.045Z,44.57
2023-01-22T21:58:58.283Z,47.87
2023-01-22T22:01:27.299Z,49.00
2023-01-22T22:03:56.095Z,47.13
2023-01-22T22:06:24.971Z,43.13
2023-01-22T22:08:55.939Z,48.77
2023-01-22T22:11:25.038Z,46.87
2023-01-22T22:13:54.480Z,46.17
2023-01-22T22:16:24.652Z,46.10
2023-01-22T22:18:55.887Z,45.20
2023-01-22T22:21:24.674Z,44.53
2023-01-22T22:23:57.298Z,45.80
2023-01-22T22:26:26.890Z,46.83
2023-01-22T22:28:56.125Z,46.93
2023-01-22T22:31:25.231Z,46.03
2023-01-22T22:33:55.928Z,45.70
2023-01-22T22:36:28.312Z,45.50
2023-01-22T22:38:59.078Z,47.17
2023-01-22T22:41:30.558Z,43.47
2023-01-22T22:43:59.448Z,46.07
2023-01-22T22:46:30.414Z,46.47
2023-01-22T22:49:01.018Z,41.93
2023-01-22T22:51:31.537Z,45.03
2023-01-22T22:54:04.027Z,42.27
2023-01-22T22:56:33.165Z,40.50
2023-01-22T22:59:05.729Z,38.10
2023-01-22T23:01:37.917Z,37.63
2023-01-22T23:04:08.060Z,40.00
2023-01-22T23:06:38.355Z,39.57
2023-01-22T23:09:13.319Z,40.33
2023-01-22T23:11:42.467Z,33.93
2023-01-22T23:14:12.051Z,39.30
2023-01-22T23:16:42.677Z,34.53
2023-01-22T23:19:15.595Z,41.47
2023-01-22T23:21:45.111Z,34.77
2023-01-22T23:24:16.191Z,36.03
2023-01-22T23:26:47.434Z,36.13
2023-01-22T23:29:19.262Z,34.03
2023-01-22T23:31:48.674Z,36.23
2023-01-22T23:34:18.977Z,36.30
2023-01-22T23:36:49.309Z,32.23
2023-01-22T23:39:24.280Z,33.00
2023-01-22T23:41:52.919Z,37.40
2023-01-22T23:44:21.518Z,33.47
2023-01-22T23:46:50.228Z,34.33
2023-01-22T23:49:19.460Z,33.93
2023-01-22T23:51:48.539Z,36.00
2023-01-22T23:54:19.080Z,35.53
2023-01-22T23:56:47.722Z,39.40
2023-01-22T23:59:16.568Z,38.83
